createdAt,value
2022-08-05T00:01:36.050Z,98941.63
2022-08-05T00:04:19.400Z,98940.13
2022-08-05T00:06:47.576Z,98948.34
2022-08-05T00:09:20.465Z,98935.88
2022-08-05T00:11:55.859Z,98937.63
2022-08-05T00:14:29.104Z,98935.47
2022-08-05T00:17:01.961Z,98942.06
2022-08-05T00:19:33.400Z,98934.53
2022-08-05T00:22:11.248Z,98938.59
2022-08-05T00:24:42.253Z,98946.34
2022-08-05T00:27:16.783Z,98941.19
2022-08-05T00:29:45.144Z,98938.06
2022-08-05T00:32:15.066Z,98942.94
2022-08-05T00:35:05.558Z,98931.06
2022-08-05T00:37:35.440Z,98929.19
2022-08-05T00:40:26.850Z,98936.94
2022-08-05T00:42:59.451Z,98934.25
2022-08-05T00:45:42.930Z,98936.78
2022-08-05T00:48:14.955Z,98934.19
2022-08-05T00:50:47.279Z,98933.44
2022-08-05T00:54:00.765Z,98922.78
2022-08-05T00:56:08.182Z,98928.44
2022-08-05T00:58:37.400Z,98921.66
2022-08-05T01:01:09.079Z,98925.59
2022-08-05T01:03:39.266Z,98923.50
2022-08-05T01:06:14.059Z,98923.19
2022-08-05T01:08:44.837Z,98914.63
2022-08-05T01:11:36.634Z,98914.00
2022-08-05T01:14:28.384Z,98929.47
2022-08-05T01:17:09.249Z,98908.59
2022-08-05T01:20:01.823Z,98918.13
2022-08-05T01:23:25.508Z,98919.63
2022-08-05T01:26:20.617Z,98925.78
2022-08-05T01:29:13.946Z,98930.41
2022-08-05T01:31:54.556Z,98925.97
2022-08-05T01:34:32.992Z,98932.94
2022-08-05T01:37:18.068Z,98933.31
2022-08-05T01:39:58.911Z,98935.56
2022-08-05T01:42:31.787Z,98931.69
2022-08-05T01:45:03.200Z,98939.31
2022-08-05T01:47:39.546Z,98931.81
2022-08-05T01:50:38.223Z,98936.03
2022-08-05T01:53:13.825Z,98925.72
2022-08-05T01:55:45.720Z,98931.88
2022-08-05T01:58:17.195Z,98931.59
2022-08-05T02:00:50.631Z,98930.28
2022-08-05T02:03:29.255Z,98930.28
2022-08-05T02:06:33.387Z,98931.72
2022-08-05T02:08:57.994Z,98934.69
2022-08-05T02:11:48.133Z,98925.78
2022-08-05T02:14:37.441Z,98922.56
2022-08-05T02:17:17.085Z,98919.78
2022-08-05T02:20:09.145Z,98909.63
2022-08-05T02:22:46.868Z,98923.19
2022-08-05T02:25:33.293Z,98922.13
2022-08-05T02:28:08.654Z,98911.06
2022-08-05T02:30:54.290Z,98919.13
2022-08-05T02:33:35.991Z,98931.13
2022-08-05T02:36:13.579Z,98916.00
2022-08-05T02:38:53.680Z,98929.28
2022-08-05T02:41:28.953Z,98925.91
2022-08-05T02:44:13.502Z,98921.13
2022-08-05T02:46:58.702Z,98921.69
2022-08-05T02:49:42.401Z,98920.59
2022-08-05T02:52:30.036Z,98923.47
2022-08-05T02:55:01.584Z,98923.63
2022-08-05T02:58:10.337Z,98914.69
2022-08-05T03:00:25.344Z,98911.13
2022-08-05T03:02:57.488Z,98928.16
2022-08-05T03:06:55.219Z,98917.59
2022-08-05T03:08:16.607Z,98927.13
2022-08-05T03:11:53.096Z,98923.91
2022-08-05T03:13:51.730Z,98918.16
2022-08-05T03:16:23.192Z,98899.16
2022-08-05T03:18:51.974Z,98916.13
2022-08-05T03:21:20.155Z,98913.78
2022-08-05T03:23:50.345Z,98919.81
2022-08-05T03:26:32.152Z,98916.13
2022-08-05T03:29:03.508Z,98922.38
2022-08-05T03:31:55.791Z,98924.88
2022-08-05T03:34:21.195Z,98911.34
2022-08-05T03:36:52.556Z,98917.72
2022-08-05T03:39:27.165Z,98916.38
2022-08-05T03:41:57.314Z,98913.25
2022-08-05T03:44:26.000Z,98918.63
2022-08-05T03:46:57.120Z,98917.63
2022-08-05T03:49:31.012Z,98913.72
2022-08-05T03:52:38.089Z,98911.22
2022-08-05T03:56:06.287Z,98922.75
2022-08-05T03:58:12.409Z,98926.00
2022-08-05T04:00:44.261Z,98911.81
2022-08-05T04:03:28.449Z,98933.75
2022-08-05T04:05:59.371Z,98928.28
2022-08-05T04:08:36.545Z,98921.22
2022-08-05T04:11:08.680Z,98926.16
2022-08-05T04:13:49.990Z,98926.63
2022-08-05T04:16:25.540Z,98922.69
2022-08-05T04:19:00.479Z,98921.91
2022-08-05T04:22:09.044Z,98928.47
2022-08-05T04:24:19.733Z,98920.22
2022-08-05T04:26:50.985Z,98919.31
2022-08-05T04:29:19.688Z,98926.81
2022-08-05T04:31:48.477Z,98918.88
2022-08-05T04:34:32.762Z,98921.97
2022-08-05T04:37:03.223Z,98926.47
2022-08-05T04:39:32.179Z,98917.97
2022-08-05T04:42:00.532Z,98911.09
2022-08-05T04:44:31.480Z,98905.84
2022-08-05T04:47:00.074Z,98904.38
2022-08-05T04:50:02.976Z,98907.59
2022-08-05T04:52:28.070Z,98902.56
2022-08-05T04:54:57.063Z,98911.66
2022-08-05T04:57:29.294Z,98914.41
2022-08-05T05:00:06.727Z,98893.41
2022-08-05T05:02:41.499Z,98896.81
2022-08-05T05:05:25.839Z,98912.59
2022-08-05T05:08:04.906Z,98912.34
2022-08-05T05:10:55.739Z,98911.53
2022-08-05T05:13:24.620Z,98915.50
2022-08-05T05:15:57.608Z,98906.63
2022-08-05T05:18:33.936Z,98891.50
2022-08-05T05:21:03.746Z,98888.88
2022-08-05T05:23:50.370Z,98896.81
2022-08-05T05:26:28.343Z,98894.34
2022-08-05T05:29:00.886Z,98870.66
2022-08-05T05:34:02.548Z,98893.56
2022-08-05T05:36:32.223Z,98874.19
2022-08-05T05:39:00.497Z,98888.69
2022-08-05T05:41:39.981Z,98882.88
2022-08-05T05:44:36.022Z,98886.41
2022-08-05T05:46:57.895Z,98866.69
2022-08-05T05:49:26.505Z,98881.03
2022-08-05T05:51:55.554Z,98878.69
2022-08-05T05:54:49.756Z,98884.56
2022-08-05T05:57:13.764Z,98892.22
2022-08-05T05:59:48.847Z,98879.13
2022-08-05T06:02:17.307Z,98884.44
2022-08-05T06:05:01.372Z,98889.28
2022-08-05T06:07:41.797Z,98860.81
2022-08-05T06:10:11.171Z,98863.84
2022-08-05T06:12:42.215Z,98855.88
2022-08-05T06:15:16.435Z,98860.63
2022-08-05T06:17:54.437Z,98860.47
2022-08-05T06:20:23.248Z,98852.53
2022-08-05T06:22:53.776Z,98869.16
2022-08-05T06:25:50.537Z,98860.69
2022-08-05T06:28:20.800Z,98877.59
2022-08-05T06:30:49.452Z,98855.34
2022-08-05T06:33:19.434Z,98860.56
2022-08-05T06:36:06.972Z,98857.19
2022-08-05T06:38:37.303Z,98857.44
2022-08-05T06:41:07.755Z,98846.03
2022-08-05T06:43:59.083Z,98866.47
2022-08-05T06:46:30.185Z,98859.94
2022-08-05T06:49:01.097Z,98854.19
2022-08-05T06:51:31.332Z,98855.88
2022-08-05T06:54:03.853Z,98854.50
2022-08-05T06:56:35.160Z,98855.97
2022-08-05T06:59:09.662Z,98837.22
2022-08-05T07:01:41.503Z,98836.03
2022-08-05T07:04:10.569Z,98836.91
2022-08-05T07:06:38.555Z,98834.09
2022-08-05T07:09:06.457Z,98835.97
2022-08-05T07:11:37.044Z,98843.22
2022-08-05T07:14:29.376Z,98839.59
2022-08-05T07:18:01.493Z,98840.56
2022-08-05T07:22:42.098Z,98824.56
2022-08-05T07:25:53.943Z,98843.28
2022-08-05T07:28:04.244Z,98836.72
2022-08-05T07:30:38.816Z,98835.69
2022-08-05T07:33:15.725Z,98817.63
2022-08-05T07:36:04.910Z,98822.94
2022-08-05T07:38:43.723Z,98813.63
2022-08-05T07:42:12.993Z,98813.38
2022-08-05T07:44:14.312Z,98820.69
2022-08-05T07:46:50.022Z,98812.22
2022-08-05T07:49:20.543Z,98798.03
2022-08-05T07:51:54.433Z,98818.97
2022-08-05T07:54:30.654Z,98793.66
2022-08-05T07:57:17.732Z,98804.91
2022-08-05T07:59:49.063Z,98796.00
2022-08-05T08:02:17.996Z,98797.88
2022-08-05T08:04:48.195Z,98787.28
2022-08-05T08:07:22.440Z,98800.38
2022-08-05T08:09:53.198Z,98804.72
2022-08-05T08:12:33.378Z,98788.03
2022-08-05T08:15:13.839Z,98792.69
2022-08-05T08:17:49.760Z,98797.75
2022-08-05T08:20:59.819Z,98792.34
2022-08-05T08:24:03.642Z,98793.44
2022-08-05T08:26:02.655Z,98789.16
2022-08-05T08:28:36.731Z,98774.72
2022-08-05T08:31:21.515Z,98784.34
2022-08-05T08:33:51.767Z,98771.03
2022-08-05T08:36:38.332Z,98775.91
2022-08-05T08:39:15.006Z,98775.72
2022-08-05T08:41:59.843Z,98776.81
2022-08-05T08:45:17.168Z,98775.22
2022-08-05T08:48:07.156Z,98785.53
2022-08-05T08:50:31.077Z,98769.28
2022-08-05T08:53:08.129Z,98776.63
2022-08-05T08:56:04.215Z,98766.09
2022-08-05T08:58:43.174Z,98765.47
2022-08-05T09:01:15.820Z,98766.91
2022-08-05T09:03:57.317Z,98765.31
2022-08-05T09:06:29.896Z,98764.09
2022-08-05T09:09:03.389Z,98753.31
2022-08-05T09:11:51.612Z,98755.94
2022-08-05T09:14:58.531Z,98748.81
2022-08-05T09:17:16.098Z,98749.72
2022-08-05T09:20:06.368Z,98728.03
2022-08-05T09:23:07.819Z,98741.38
2022-08-05T09:26:02.880Z,98741.47
2022-08-05T09:28:39.171Z,98726.88
2022-08-05T09:31:23.511Z,98717.44
2022-08-05T09:34:06.992Z,98726.59
2022-08-05T09:36:54.699Z,98728.91
2022-08-05T09:39:39.410Z,98722.66
2022-08-05T09:42:28.214Z,98728.88
2022-08-05T09:46:05.058Z,98729.13
2022-08-05T09:47:58.327Z,98725.19
2022-08-05T09:50:44.045Z,98727.03
2022-08-05T09:53:22.941Z,98725.16
2022-08-05T09:56:11.342Z,98722.28
2022-08-05T09:58:42.403Z,98721.72
2022-08-05T10:01:31.499Z,98709.78
2022-08-05T10:04:16.056Z,98709.22
2022-08-05T10:07:01.531Z,98712.28
2022-08-05T10:10:04.266Z,98697.50
2022-08-05T10:12:50.005Z,98691.00
2022-08-05T10:15:25.806Z,98681.44
2022-08-05T10:18:20.341Z,98701.69
2022-08-05T10:20:58.301Z,98694.88
2022-08-05T10:24:00.055Z,98696.59
2022-08-05T10:26:31.578Z,98699.91
2022-08-05T10:29:00.201Z,98693.78
2022-08-05T10:32:51.500Z,98685.75
2022-08-05T10:34:17.218Z,98680.00
2022-08-05T10:36:46.486Z,98671.16
2022-08-05T10:39:58.959Z,98678.72
2022-08-05T10:42:34.338Z,98679.69
2022-08-05T10:45:21.499Z,98674.56
2022-08-05T10:48:30.670Z,98660.19
2022-08-05T10:51:21.993Z,98632.25
2022-08-05T10:54:05.873Z,98649.28
2022-08-05T10:56:56.147Z,98652.44
2022-08-05T11:00:03.140Z,98643.59
2022-08-05T11:02:34.652Z,98634.38
2022-08-05T11:05:10.797Z,98625.19
2022-08-05T11:08:27.498Z,98641.78
2022-08-05T11:11:01.068Z,98636.31
2022-08-05T11:13:54.721Z,98625.47
2022-08-05T11:16:47.741Z,98624.53
2022-08-05T11:20:10.193Z,98635.50
2022-08-05T11:22:49.778Z,98617.28
2022-08-05T11:26:04.250Z,98629.78
2022-08-05T11:28:26.838Z,98633.81
2022-08-05T11:31:05.911Z,98628.97
2022-08-05T11:33:47.924Z,98626.66
2022-08-05T11:36:34.429Z,98616.38
2022-08-05T11:39:09.674Z,98615.59
2022-08-05T11:42:01.658Z,98609.63
2022-08-05T11:44:53.357Z,98599.56
2022-08-05T11:47:49.446Z,98588.31
2022-08-05T11:50:14.231Z,98593.28
2022-08-05T11:52:44.010Z,98596.97
2022-08-05T11:55:15.626Z,98598.91
2022-08-05T11:58:10.720Z,98596.56
2022-08-05T12:00:38.372Z,98586.88
2022-08-05T12:03:31.448Z,98577.38
2022-08-05T12:06:06.414Z,98582.81
2022-08-05T12:08:53.489Z,98585.34
2022-08-05T12:11:40.144Z,98585.13
2022-08-05T12:14:10.388Z,98576.28
2022-08-05T12:16:45.482Z,98575.94
2022-08-05T12:20:27.062Z,98563.84
2022-08-05T12:22:09.584Z,98563.47
2022-08-05T12:24:43.645Z,98562.47
2022-08-05T12:27:33.505Z,98567.63
2022-08-05T12:30:10.696Z,98560.50
2022-08-05T12:32:51.362Z,98561.72
2022-08-05T12:35:21.856Z,98560.97
2022-08-05T12:37:50.302Z,98560.03
2022-08-05T12:40:26.794Z,98555.88
2022-08-05T12:42:56.981Z,98550.84
2022-08-05T12:45:49.642Z,98558.44
2022-08-05T12:48:32.305Z,98550.25
2022-08-05T12:52:09.884Z,98555.94
2022-08-05T12:54:16.849Z,98545.78
2022-08-05T12:57:13.309Z,98545.94
2022-08-05T13:01:56.979Z,98541.34
2022-08-05T13:02:40.851Z,98540.25
2022-08-05T13:05:12.536Z,98524.66
2022-08-05T13:07:59.186Z,98521.88
2022-08-05T13:10:33.361Z,98528.25
2022-08-05T13:13:08.897Z,98510.75
2022-08-05T13:15:50.575Z,98521.66
2022-08-05T13:18:20.516Z,98507.69
2022-08-05T13:20:50.036Z,98515.91
2022-08-05T13:23:22.402Z,98509.09
2022-08-05T13:25:59.655Z,98506.72
2022-08-05T13:28:32.299Z,98509.81
2022-08-05T13:31:03.286Z,98505.06
2022-08-05T13:34:22.810Z,98507.88
2022-08-05T13:36:27.271Z,98503.13
2022-08-05T13:38:56.925Z,98514.09
2022-08-05T13:41:25.869Z,98514.22
2022-08-05T13:44:05.706Z,98498.78
2022-08-05T13:46:44.339Z,98500.31
2022-08-05T13:49:21.919Z,98512.72
2022-08-05T13:51:49.828Z,98503.03
2022-08-05T13:54:24.926Z,98498.38
2022-08-05T13:56:53.755Z,98498.66
2022-08-05T13:59:26.097Z,98493.00
2022-08-05T14:02:00.699Z,98484.50
2022-08-05T14:04:52.942Z,98479.66
2022-08-05T14:08:05.548Z,98484.44
2022-08-05T14:10:30.643Z,98469.06
2022-08-05T14:12:59.949Z,98476.09
2022-08-05T14:16:05.914Z,98484.88
2022-08-05T14:18:23.051Z,98492.72
2022-08-05T14:20:54.731Z,98481.94
2022-08-05T14:23:25.803Z,98471.47
2022-08-05T14:25:59.072Z,98482.66
2022-08-05T14:28:31.255Z,98479.75
2022-08-05T14:31:00.848Z,98478.09
2022-08-05T14:33:56.416Z,98477.75
2022-08-05T14:36:21.333Z,98470.19
2022-08-05T14:38:51.217Z,98459.59
2022-08-05T14:41:19.660Z,98471.63
2022-08-05T14:44:01.615Z,98469.41
2022-08-05T14:46:35.629Z,98468.06
2022-08-05T14:49:07.544Z,98466.13
2022-08-05T14:51:38.420Z,98453.50
2022-08-05T14:54:28.021Z,98462.13
2022-08-05T14:56:59.854Z,98464.78
2022-08-05T14:59:29.641Z,98458.31
2022-08-05T15:02:15.131Z,98444.88
2022-08-05T15:04:44.941Z,98455.06
2022-08-05T15:08:06.139Z,98452.22
2022-08-05T15:10:04.615Z,98459.50
2022-08-05T15:12:59.711Z,98454.75
2022-08-05T15:15:54.548Z,98443.25
2022-08-05T15:18:17.277Z,98444.47
2022-08-05T15:20:46.048Z,98435.47
2022-08-05T15:23:14.439Z,98430.00
2022-08-05T15:25:53.005Z,98433.47
2022-08-05T15:28:27.059Z,98443.34
2022-08-05T15:30:55.952Z,98437.84
2022-08-05T15:34:05.145Z,98428.59
2022-08-05T15:36:17.819Z,98426.13
2022-08-05T15:40:59.775Z,98426.53
2022-08-05T15:41:57.475Z,98421.59
2022-08-05T15:44:30.297Z,98422.84
2022-08-05T15:47:01.288Z,98411.69
2022-08-05T15:49:43.266Z,98408.53
2022-08-05T15:52:51.989Z,98412.69
2022-08-05T15:55:16.135Z,98412.47
2022-08-05T15:57:44.937Z,98421.28
2022-08-05T16:00:16.786Z,98411.78
2022-08-05T16:02:45.277Z,98421.97
2022-08-05T16:05:15.046Z,98406.25
2022-08-05T16:07:46.210Z,98409.25
2022-08-05T16:10:14.574Z,98401.44
2022-08-05T16:12:44.035Z,98411.56
2022-08-05T16:15:18.772Z,98433.44
2022-08-05T16:17:57.511Z,98425.72
2022-08-05T16:20:27.962Z,98416.13
2022-08-05T16:22:56.115Z,98402.63
2022-08-05T16:25:34.180Z,98412.13
2022-08-05T16:28:09.827Z,98422.53
2022-08-05T16:30:38.487Z,98402.97
2022-08-05T16:33:06.633Z,98421.50
2022-08-05T16:35:42.466Z,98422.09
2022-08-05T16:38:18.777Z,98412.91
2022-08-05T16:41:01.441Z,98424.13
2022-08-05T16:43:33.085Z,98424.06
2022-08-05T16:46:23.698Z,98415.63
2022-08-05T16:48:52.732Z,98417.59
2022-08-05T16:51:20.812Z,98423.28
2022-08-05T16:54:05.155Z,98411.81
2022-08-05T16:56:41.494Z,98411.03
2022-08-05T16:59:10.548Z,98406.53
2022-08-05T17:01:54.109Z,98408.13
2022-08-05T17:04:28.536Z,98426.34
2022-08-05T17:07:03.611Z,98427.56
2022-08-05T17:09:58.053Z,98414.91
2022-08-05T17:12:51.404Z,98418.97
2022-08-05T17:15:19.194Z,98447.59
2022-08-05T17:17:55.141Z,98439.69
2022-08-05T17:20:23.320Z,98428.78
2022-08-05T17:22:55.645Z,98432.94
2022-08-05T17:25:39.367Z,98441.94
2022-08-05T17:28:07.861Z,98452.25
2022-08-05T17:30:50.297Z,98437.16
2022-08-05T17:33:20.785Z,98436.22
2022-08-05T17:36:07.526Z,98446.19
2022-08-05T17:38:36.455Z,98453.44
2022-08-05T17:41:05.737Z,98455.63
2022-08-05T17:43:50.335Z,98469.88
2022-08-05T17:46:21.443Z,98463.69
2022-08-05T17:48:49.580Z,98469.28
2022-08-05T17:51:21.457Z,98459.16
2022-08-05T17:53:54.739Z,98471.53
2022-08-05T17:56:23.024Z,98479.94
2022-08-05T17:58:56.448Z,98481.59
2022-08-05T18:01:24.373Z,98493.00
2022-08-05T18:04:04.363Z,98481.78
2022-08-05T18:06:33.925Z,98466.94
2022-08-05T18:09:03.605Z,98478.50
2022-08-05T18:11:33.525Z,98486.56
2022-08-05T18:14:13.672Z,98490.28
2022-08-05T18:16:51.800Z,98469.09
2022-08-05T18:19:26.962Z,98494.53
2022-08-05T18:22:08.962Z,98498.47
2022-08-05T18:24:40.629Z,98506.34
2022-08-05T18:27:12.685Z,98486.91
2022-08-05T18:29:53.716Z,98516.66
2022-08-05T18:32:28.313Z,98528.03
2022-08-05T18:34:58.108Z,98519.56
2022-08-05T18:37:34.440Z,98512.56
2022-08-05T18:41:52.746Z,98529.34
2022-08-05T18:43:04.088Z,98543.50
2022-08-05T18:45:41.649Z,98512.00
2022-08-05T18:48:11.023Z,98528.66
2022-08-05T18:51:01.653Z,98538.00
2022-08-05T18:53:50.419Z,98540.97
2022-08-05T18:56:21.581Z,98562.84
2022-08-05T18:58:54.984Z,98561.13
2022-08-05T19:01:33.364Z,98548.47
2022-08-05T19:04:24.087Z,98542.38
2022-08-05T19:06:53.580Z,98545.69
2022-08-05T19:09:21.885Z,98552.72
2022-08-05T19:12:00.611Z,98558.91
2022-08-05T19:14:44.536Z,98576.13
2022-08-05T19:17:21.305Z,98572.78
2022-08-05T19:19:50.160Z,98572.94
2022-08-05T19:22:18.507Z,98591.13
2022-08-05T19:24:54.316Z,98553.09
2022-08-05T19:27:27.840Z,98581.31
2022-08-05T19:29:58.960Z,98584.00
2022-08-05T19:32:27.939Z,98559.22
2022-08-05T19:34:57.893Z,98587.50
2022-08-05T19:37:35.339Z,98579.97
2022-08-05T19:40:15.548Z,98578.63
2022-08-05T19:43:05.513Z,98568.69
2022-08-05T19:45:36.261Z,98564.72
2022-08-05T19:48:06.301Z,98580.06
2022-08-05T19:50:35.208Z,98581.78
2022-08-05T19:53:10.325Z,98603.22
2022-08-05T19:56:15.347Z,98577.31
2022-08-05T19:58:29.299Z,98599.38
2022-08-05T20:00:59.055Z,98599.25
2022-08-05T20:03:27.580Z,98593.16
2022-08-05T20:06:15.282Z,98596.91
2022-08-05T20:08:47.347Z,98591.34
2022-08-05T20:11:18.001Z,98602.91
2022-08-05T20:13:58.367Z,98589.75
2022-08-05T20:16:35.599Z,98594.53
2022-08-05T20:19:04.516Z,98602.06
2022-08-05T20:21:33.190Z,98597.28
2022-08-05T20:24:01.137Z,98591.66
2022-08-05T20:26:29.562Z,98585.34
2022-08-05T20:29:00.782Z,98586.41
2022-08-05T20:31:42.044Z,98603.13
2022-08-05T20:34:17.239Z,98588.94
2022-08-05T20:36:45.501Z,98602.56
2022-08-05T20:39:16.420Z,98613.72
2022-08-05T20:41:47.865Z,98615.03
2022-08-05T20:44:30.403Z,98602.69
2022-08-05T20:47:01.560Z,98628.69
2022-08-05T20:49:33.215Z,98620.69
2022-08-05T20:52:10.784Z,98622.22
2022-08-05T20:54:59.719Z,98621.28
2022-08-05T20:57:43.230Z,98622.63
2022-08-05T21:00:41.005Z,98620.84
2022-08-05T21:03:06.132Z,98603.31
2022-08-05T21:05:53.653Z,98592.25
2022-08-05T21:08:42.107Z,98625.41
2022-08-05T21:11:12.685Z,98603.53
2022-08-05T21:13:55.812Z,98590.91
2022-08-05T21:16:29.376Z,98601.31
2022-08-05T21:19:03.605Z,98602.34
2022-08-05T21:21:39.459Z,98620.03
2022-08-05T21:24:15.376Z,98605.06
2022-08-05T21:26:50.568Z,98616.94
2022-08-05T21:29:26.676Z,98615.53
2022-08-05T21:32:04.142Z,98618.06
2022-08-05T21:34:32.912Z,98594.34
2022-08-05T21:37:04.954Z,98611.19
2022-08-05T21:39:34.720Z,98602.16
2022-08-05T21:42:30.479Z,98627.78
2022-08-05T21:44:57.739Z,98621.13
2022-08-05T21:47:54.956Z,98620.09
2022-08-05T21:50:16.894Z,98638.50
2022-08-05T21:52:47.432Z,98633.88
2022-08-05T21:55:15.634Z,98638.28
2022-08-05T21:57:43.614Z,98647.41
2022-08-05T22:00:15.372Z,98642.25
2022-08-05T22:02:44.006Z,98640.22
2022-08-05T22:05:13.884Z,98656.78
2022-08-05T22:07:58.004Z,98647.22
2022-08-05T22:10:31.027Z,98633.81
2022-08-05T22:13:21.980Z,98661.50
2022-08-05T22:16:02.533Z,98628.91
2022-08-05T22:18:38.993Z,98648.59
2022-08-05T22:21:19.172Z,98632.59
2022-08-05T22:24:08.790Z,98649.16
2022-08-05T22:26:59.943Z,98645.53
2022-08-05T22:29:30.725Z,98655.38
2022-08-05T22:32:03.220Z,98655.88
2022-08-05T22:34:35.113Z,98645.81
2022-08-05T22:37:04.672Z,98648.91
2022-08-05T22:39:34.756Z,98658.47
2022-08-05T22:42:12.734Z,98657.97
2022-08-05T22:44:53.736Z,98629.78
2022-08-05T22:47:29.771Z,98651.25
2022-08-05T22:50:20.286Z,98651.75
2022-08-05T22:52:51.232Z,98649.16
2022-08-05T22:55:21.847Z,98658.25
2022-08-05T22:57:55.081Z,98655.91
2022-08-05T23:00:24.065Z,98658.22
2022-08-05T23:02:55.092Z,98658.50
2022-08-05T23:05:23.750Z,98625.34
2022-08-05T23:07:52.989Z,98650.47
2022-08-05T23:10:23.489Z,98640.88
2022-08-05T23:12:54.466Z,98651.75
2022-08-05T23:15:34.815Z,98636.69
2022-08-05T23:18:05.897Z,98640.06
2022-08-05T23:20:39.753Z,98622.69
2022-08-05T23:23:08.796Z,98603.03
2022-08-05T23:25:53.627Z,98616.75
2022-08-05T23:28:28.880Z,98611.03
2022-08-05T23:31:16.231Z,98615.41
2022-08-05T23:34:06.185Z,98621.09
2022-08-05T23:36:38.482Z,98624.47
2022-08-05T23:39:08.388Z,98617.47
2022-08-05T23:41:37.329Z,98635.03
2022-08-05T23:44:09.190Z,98623.94
2022-08-05T23:46:37.584Z,98625.25
2022-08-05T23:49:16.461Z,98614.38
2022-08-05T23:52:05.519Z,98607.16
2022-08-05T23:54:38.261Z,98598.84
2022-08-05T23:57:08.235Z,98622.69
